sensor_id;sensor_type;location;lat;lon;timestamp;pressure;altitude;pressure_sealevel;temperature
19040;BMP180;9652;49.014;12.052;2023-12-07T00:02:18;97986.00;;;5.60
19040;BMP180;9652;49.014;12.052;2023-12-07T00:04:46;97970.00;;;5.60
19040;BMP180;9652;49.014;12.052;2023-12-07T00:07:14;97986.00;;;5.60
19040;BMP180;9652;49.014;12.052;2023-12-07T00:09:41;97972.00;;;5.60
19040;BMP180;9652;49.014;12.052;2023-12-07T00:12:08;97985.00;;;5.50
19040;BMP180;9652;49.014;12.052;2023-12-07T00:14:35;97981.00;;;5.60
19040;BMP180;9652;49.014;12.052;2023-12-07T00:17:02;97980.00;;;5.60
19040;BMP180;9652;49.014;12.052;2023-12-07T00:19:30;97934.00;;;5.60
19040;BMP180;9652;49.014;12.052;2023-12-07T00:21:57;98005.00;;;5.60
19040;BMP180;9652;49.014;12.052;2023-12-07T00:24:24;97989.00;;;5.60
19040;BMP180;9652;49.014;12.052;2023-12-07T00:26:51;97996.00;;;5.60
19040;BMP180;9652;49.014;12.052;2023-12-07T00:29:18;97986.00;;;5.60
19040;BMP180;9652;49.014;12.052;2023-12-07T00:31:45;97993.00;;;5.60
19040;BMP180;9652;49.014;12.052;2023-12-07T00:34:12;97995.00;;;5.60
19040;BMP180;9652;49.014;12.052;2023-12-07T00:36:39;97992.00;;;5.60
19040;BMP180;9652;49.014;12.052;2023-12-07T00:39:08;97989.00;;;5.60
19040;BMP180;9652;49.014;12.052;2023-12-07T00:41:36;97991.00;;;5.60
19040;BMP180;9652;49.014;12.052;2023-12-07T00:44:03;97995.00;;;5.60
19040;BMP180;9652;49.014;12.052;2023-12-07T00:46:31;97999.00;;;5.60
19040;BMP180;9652;49.014;12.052;2023-12-07T00:48:58;97996.00;;;5.70
19040;BMP180;9652;49.014;12.052;2023-12-07T00:51:25;97991.00;;;5.70
19040;BMP180;9652;49.014;12.052;2023-12-07T00:53:52;97989.00;;;5.60
19040;BMP180;9652;49.014;12.052;2023-12-07T00:56:21;97990.00;;;5.60
19040;BMP180;9652;49.014;12.052;2023-12-07T00:58:48;98018.00;;;5.70
19040;BMP180;9652;49.014;12.052;2023-12-07T01:01:15;98004.00;;;5.70
19040;BMP180;9652;49.014;12.052;2023-12-07T01:03:42;98002.00;;;5.60
19040;BMP180;9652;49.014;12.052;2023-12-07T01:06:09;98014.00;;;5.70
19040;BMP180;9652;49.014;12.052;2023-12-07T01:08:37;97991.00;;;5.60
19040;BMP180;9652;49.014;12.052;2023-12-07T01:11:04;98014.00;;;5.60
19040;BMP180;9652;49.014;12.052;2023-12-07T01:13:33;98006.00;;;5.60
19040;BMP180;9652;49.014;12.052;2023-12-07T01:16:02;98013.00;;;5.60
19040;BMP180;9652;49.014;12.052;2023-12-07T01:18:29;98016.00;;;5.60
19040;BMP180;9652;49.014;12.052;2023-12-07T01:20:56;98003.00;;;5.60
19040;BMP180;9652;49.014;12.052;2023-12-07T01:23:23;98013.00;;;5.60
19040;BMP180;9652;49.014;12.052;2023-12-07T01:25:50;98022.00;;;5.60
19040;BMP180;9652;49.014;12.052;2023-12-07T01:28:17;98025.00;;;5.60
19040;BMP180;9652;49.014;12.052;2023-12-07T01:30:45;98031.00;;;5.50
19040;BMP180;9652;49.014;12.052;2023-12-07T01:33:12;98026.00;;;5.50
19040;BMP180;9652;49.014;12.052;2023-12-07T01:35:39;98032.00;;;5.50
19040;BMP180;9652;49.014;12.052;2023-12-07T01:38:06;98025.00;;;5.50
19040;BMP180;9652;49.014;12.052;2023-12-07T01:40:33;98036.00;;;5.50
19040;BMP180;9652;49.014;12.052;2023-12-07T01:43:00;98047.00;;;5.50
19040;BMP180;9652;49.014;12.052;2023-12-07T01:45:27;97987.00;;;5.50
19040;BMP180;9652;49.014;12.052;2023-12-07T01:47:56;98046.00;;;5.50
19040;BMP180;9652;49.014;12.052;2023-12-07T01:50:24;98050.00;;;5.50
19040;BMP180;9652;49.014;12.052;2023-12-07T01:52:57;98048.00;;;5.50
19040;BMP180;9652;49.014;12.052;2023-12-07T01:55:27;98049.00;;;5.50
19040;BMP180;9652;49.014;12.052;2023-12-07T01:57:55;98051.00;;;5.50
19040;BMP180;9652;49.014;12.052;2023-12-07T02:00:22;98047.00;;;5.50
19040;BMP180;9652;49.014;12.052;2023-12-07T02:02:50;98057.00;;;5.50
19040;BMP180;9652;49.014;12.052;2023-12-07T02:05:19;98054.00;;;5.50
19040;BMP180;9652;49.014;12.052;2023-12-07T02:07:47;98063.00;;;5.50
19040;BMP180;9652;49.014;12.052;2023-12-07T02:10:14;98063.00;;;5.50
19040;BMP180;9652;49.014;12.052;2023-12-07T02:12:42;98061.00;;;5.50
19040;BMP180;9652;49.014;12.052;2023-12-07T02:15:09;98071.00;;;5.50
19040;BMP180;9652;49.014;12.052;2023-12-07T02:17:49;98069.00;;;5.50
19040;BMP180;9652;49.014;12.052;2023-12-07T02:20:27;98074.00;;;5.60
19040;BMP180;9652;49.014;12.052;2023-12-07T02:23:00;98063.00;;;5.60
19040;BMP180;9652;49.014;12.052;2023-12-07T02:25:36;98084.00;;;5.60
19040;BMP180;9652;49.014;12.052;2023-12-07T02:28:04;98075.00;;;5.60
19040;BMP180;9652;49.014;12.052;2023-12-07T02:30:32;98077.00;;;5.60
19040;BMP180;9652;49.014;12.052;2023-12-07T02:32:59;98071.00;;;5.60
19040;BMP180;9652;49.014;12.052;2023-12-07T02:35:27;98040.00;;;5.60
19040;BMP180;9652;49.014;12.052;2023-12-07T02:37:55;98073.00;;;5.60
19040;BMP180;9652;49.014;12.052;2023-12-07T02:40:26;98066.00;;;5.60
19040;BMP180;9652;49.014;12.052;2023-12-07T02:42:55;98069.00;;;5.60
19040;BMP180;9652;49.014;12.052;2023-12-07T02:45:24;98078.00;;;5.60
19040;BMP180;9652;49.014;12.052;2023-12-07T02:47:52;98053.00;;;5.60
19040;BMP180;9652;49.014;12.052;2023-12-07T02:50:19;98070.00;;;5.60
19040;BMP180;9652;49.014;12.052;2023-12-07T02:52:46;98065.00;;;5.60
19040;BMP180;9652;49.014;12.052;2023-12-07T02:55:13;98080.00;;;5.60
19040;BMP180;9652;49.014;12.052;2023-12-07T02:57:40;98083.00;;;5.60
19040;BMP180;9652;49.014;12.052;2023-12-07T03:00:09;98066.00;;;5.60
19040;BMP180;9652;49.014;12.052;2023-12-07T03:02:40;98061.00;;;5.60
19040;BMP180;9652;49.014;12.052;2023-12-07T03:05:07;98044.00;;;5.60
19040;BMP180;9652;49.014;12.052;2023-12-07T03:07:35;98078.00;;;5.60
19040;BMP180;9652;49.014;12.052;2023-12-07T03:10:03;98091.00;;;5.60
19040;BMP180;9652;49.014;12.052;2023-12-07T03:12:30;98070.00;;;5.60
19040;BMP180;9652;49.014;12.052;2023-12-07T03:14:57;98072.00;;;5.60
19040;BMP180;9652;49.014;12.052;2023-12-07T03:17:24;98082.00;;;5.60
19040;BMP180;9652;49.014;12.052;2023-12-07T03:19:53;98079.00;;;5.60
19040;BMP180;9652;49.014;12.052;2023-12-07T03:22:20;98077.00;;;5.60
19040;BMP180;9652;49.014;12.052;2023-12-07T03:24:51;98084.00;;;5.60
19040;BMP180;9652;49.014;12.052;2023-12-07T03:27:18;98086.00;;;5.60
19040;BMP180;9652;49.014;12.052;2023-12-07T03:29:45;98081.00;;;5.60
19040;BMP180;9652;49.014;12.052;2023-12-07T03:32:12;98097.00;;;5.70
19040;BMP180;9652;49.014;12.052;2023-12-07T03:34:39;98101.00;;;5.70
19040;BMP180;9652;49.014;12.052;2023-12-07T03:37:08;98099.00;;;5.70
19040;BMP180;9652;49.014;12.052;2023-12-07T03:39:35;98104.00;;;5.70
19040;BMP180;9652;49.014;12.052;2023-12-07T03:42:02;98109.00;;;5.70
19040;BMP180;9652;49.014;12.052;2023-12-07T03:44:29;98111.00;;;5.60
19040;BMP180;9652;49.014;12.052;2023-12-07T03:46:56;98111.00;;;5.60
19040;BMP180;9652;49.014;12.052;2023-12-07T03:49:23;98094.00;;;5.70
19040;BMP180;9652;49.014;12.052;2023-12-07T03:51:51;98114.00;;;5.70
19040;BMP180;9652;49.014;12.052;2023-12-07T03:54:19;98111.00;;;5.70
19040;BMP180;9652;49.014;12.052;2023-12-07T03:56:46;98097.00;;;5.70
19040;BMP180;9652;49.014;12.052;2023-12-07T03:59:13;98109.00;;;5.60
19040;BMP180;9652;49.014;12.052;2023-12-07T04:01:41;98109.00;;;5.70
19040;BMP180;9652;49.014;12.052;2023-12-07T04:04:08;98089.00;;;5.70
19040;BMP180;9652;49.014;12.052;2023-12-07T04:06:35;98104.00;;;5.70
19040;BMP180;9652;49.014;12.052;2023-12-07T04:09:02;98113.00;;;5.70
19040;BMP180;9652;49.014;12.052;2023-12-07T04:11:31;98120.00;;;5.70
19040;BMP180;9652;49.014;12.052;2023-12-07T04:13:58;98111.00;;;5.70
19040;BMP180;9652;49.014;12.052;2023-12-07T04:16:25;98124.00;;;5.60
19040;BMP180;9652;49.014;12.052;2023-12-07T04:18:52;98048.00;;;5.60
19040;BMP180;9652;49.014;12.052;2023-12-07T04:21:19;98112.00;;;5.70
19040;BMP180;9652;49.014;12.052;2023-12-07T04:23:47;98118.00;;;5.60
19040;BMP180;9652;49.014;12.052;2023-12-07T04:26:14;98134.00;;;5.70
19040;BMP180;9652;49.014;12.052;2023-12-07T04:28:42;98108.00;;;5.70
19040;BMP180;9652;49.014;12.052;2023-12-07T04:31:09;98142.00;;;5.70
19040;BMP180;9652;49.014;12.052;2023-12-07T04:33:36;98130.00;;;5.70
19040;BMP180;9652;49.014;12.052;2023-12-07T04:36:05;98135.00;;;5.70
19040;BMP180;9652;49.014;12.052;2023-12-07T04:38:33;98134.00;;;5.70
19040;BMP180;9652;49.014;12.052;2023-12-07T04:41:00;98137.00;;;5.70
19040;BMP180;9652;49.014;12.052;2023-12-07T04:43:27;98141.00;;;5.70
19040;BMP180;9652;49.014;12.052;2023-12-07T04:45:56;98145.00;;;5.70
19040;BMP180;9652;49.014;12.052;2023-12-07T04:48:23;98151.00;;;5.70
19040;BMP180;9652;49.014;12.052;2023-12-07T04:50:51;98133.00;;;5.70
19040;BMP180;9652;49.014;12.052;2023-12-07T04:53:18;98141.00;;;5.70
19040;BMP180;9652;49.014;12.052;2023-12-07T04:55:45;98149.00;;;5.70
19040;BMP180;9652;49.014;12.052;2023-12-07T04:58:16;98155.00;;;5.70
19040;BMP180;9652;49.014;12.052;2023-12-07T05:00:43;98144.00;;;5.70
19040;BMP180;9652;49.014;12.052;2023-12-07T05:03:11;98148.00;;;5.70
19040;BMP180;9652;49.014;12.052;2023-12-07T05:05:38;98158.00;;;5.70
19040;BMP180;9652;49.014;12.052;2023-12-07T05:08:05;98163.00;;;5.70
19040;BMP180;9652;49.014;12.052;2023-12-07T05:10:32;98151.00;;;5.70
19040;BMP180;9652;49.014;12.052;2023-12-07T05:13:00;98170.00;;;5.70
19040;BMP180;9652;49.014;12.052;2023-12-07T05:15:27;98165.00;;;5.80
19040;BMP180;9652;49.014;12.052;2023-12-07T05:17:54;98151.00;;;5.80
19040;BMP180;9652;49.014;12.052;2023-12-07T05:20:22;98161.00;;;5.70
19040;BMP180;9652;49.014;12.052;2023-12-07T05:22:51;98157.00;;;5.80
19040;BMP180;9652;49.014;12.052;2023-12-07T05:25:18;98125.00;;;5.80
19040;BMP180;9652;49.014;12.052;2023-12-07T05:27:45;98162.00;;;5.80
19040;BMP180;9652;49.014;12.052;2023-12-07T05:30:13;98157.00;;;5.80
19040;BMP180;9652;49.014;12.052;2023-12-07T05:32:40;98156.00;;;5.80
19040;BMP180;9652;49.014;12.052;2023-12-07T05:35:08;98160.00;;;5.80
19040;BMP180;9652;49.014;12.052;2023-12-07T05:37:37;98153.00;;;5.80
19040;BMP180;9652;49.014;12.052;2023-12-07T05:40:05;98171.00;;;5.80
19040;BMP180;9652;49.014;12.052;2023-12-07T05:42:33;98173.00;;;5.80
19040;BMP180;9652;49.014;12.052;2023-12-07T05:45:00;98174.00;;;5.80
19040;BMP180;9652;49.014;12.052;2023-12-07T05:47:27;98166.00;;;5.80
19040;BMP180;9652;49.014;12.052;2023-12-07T05:49:54;98175.00;;;5.80
19040;BMP180;9652;49.014;12.052;2023-12-07T05:52:23;98120.00;;;5.80
19040;BMP180;9652;49.014;12.052;2023-12-07T05:54:51;98175.00;;;5.80
19040;BMP180;9652;49.014;12.052;2023-12-07T05:57:18;98170.00;;;5.80
19040;BMP180;9652;49.014;12.052;2023-12-07T05:59:46;98183.00;;;5.70
19040;BMP180;9652;49.014;12.052;2023-12-07T06:02:13;98190.00;;;5.80
19040;BMP180;9652;49.014;12.052;2023-12-07T06:04:40;98186.00;;;5.70
19040;BMP180;9652;49.014;12.052;2023-12-07T06:07:08;98191.00;;;5.80
19040;BMP180;9652;49.014;12.052;2023-12-07T06:09:35;98189.00;;;5.80
19040;BMP180;9652;49.014;12.052;2023-12-07T06:12:04;98180.00;;;5.80
19040;BMP180;9652;49.014;12.052;2023-12-07T06:14:31;98182.00;;;5.80
19040;BMP180;9652;49.014;12.052;2023-12-07T06:16:58;98162.00;;;5.80
19040;BMP180;9652;49.014;12.052;2023-12-07T06:19:26;98168.00;;;5.70
19040;BMP180;9652;49.014;12.052;2023-12-07T06:21:53;98159.00;;;5.70
19040;BMP180;9652;49.014;12.052;2023-12-07T06:24:20;98154.00;;;5.70
19040;BMP180;9652;49.014;12.052;2023-12-07T06:26:49;98176.00;;;5.70
19040;BMP180;9652;49.014;12.052;2023-12-07T06:29:17;98190.00;;;5.60
19040;BMP180;9652;49.014;12.052;2023-12-07T06:31:45;98171.00;;;5.60
19040;BMP180;9652;49.014;12.052;2023-12-07T06:34:12;98186.00;;;5.60
19040;BMP180;9652;49.014;12.052;2023-12-07T06:36:39;98170.00;;;5.50
19040;BMP180;9652;49.014;12.052;2023-12-07T06:39:06;98185.00;;;5.50
19040;BMP180;9652;49.014;12.052;2023-12-07T06:41:33;98176.00;;;5.50
19040;BMP180;9652;49.014;12.052;2023-12-07T06:44:00;98185.00;;;5.40
19040;BMP180;9652;49.014;12.052;2023-12-07T06:46:28;98191.00;;;5.40
19040;BMP180;9652;49.014;12.052;2023-12-07T06:48:55;98186.00;;;5.40
19040;BMP180;9652;49.014;12.052;2023-12-07T06:51:23;98197.00;;;5.30
19040;BMP180;9652;49.014;12.052;2023-12-07T06:53:50;98191.00;;;5.30
19040;BMP180;9652;49.014;12.052;2023-12-07T06:56:17;98177.00;;;5.30
19040;BMP180;9652;49.014;12.052;2023-12-07T06:58:44;98194.00;;;5.20
19040;BMP180;9652;49.014;12.052;2023-12-07T07:01:11;98193.00;;;5.20
19040;BMP180;9652;49.014;12.052;2023-12-07T07:03:41;98186.00;;;5.20
19040;BMP180;9652;49.014;12.052;2023-12-07T07:06:08;98189.00;;;5.10
19040;BMP180;9652;49.014;12.052;2023-12-07T07:08:35;98196.00;;;5.10
19040;BMP180;9652;49.014;12.052;2023-12-07T07:11:11;98206.00;;;5.10
19040;BMP180;9652;49.014;12.052;2023-12-07T07:13:38;98192.00;;;5.10
19040;BMP180;9652;49.014;12.052;2023-12-07T07:16:07;98197.00;;;5.10
19040;BMP180;9652;49.014;12.052;2023-12-07T07:18:34;98218.00;;;5.00
19040;BMP180;9652;49.014;12.052;2023-12-07T07:21:02;98208.00;;;5.00
19040;BMP180;9652;49.014;12.052;2023-12-07T07:23:30;98215.00;;;5.00
19040;BMP180;9652;49.014;12.052;2023-12-07T07:25:57;98200.00;;;5.00
19040;BMP180;9652;49.014;12.052;2023-12-07T07:28:24;98205.00;;;5.00
19040;BMP180;9652;49.014;12.052;2023-12-07T07:30:51;98202.00;;;4.90
19040;BMP180;9652;49.014;12.052;2023-12-07T07:33:19;98227.00;;;5.10
19040;BMP180;9652;49.014;12.052;2023-12-07T07:35:46;98227.00;;;5.10
19040;BMP180;9652;49.014;12.052;2023-12-07T07:38:14;98214.00;;;5.10
19040;BMP180;9652;49.014;12.052;2023-12-07T07:40:41;98200.00;;;5.10
19040;BMP180;9652;49.014;12.052;2023-12-07T07:43:11;98217.00;;;5.10
19040;BMP180;9652;49.014;12.052;2023-12-07T07:45:38;98217.00;;;5.20
19040;BMP180;9652;49.014;12.052;2023-12-07T07:48:05;98209.00;;;5.20
19040;BMP180;9652;49.014;12.052;2023-12-07T07:50:32;98224.00;;;5.20
19040;BMP180;9652;49.014;12.052;2023-12-07T07:53:02;98227.00;;;5.30
19040;BMP180;9652;49.014;12.052;2023-12-07T07:55:31;98225.00;;;5.30
19040;BMP180;9652;49.014;12.052;2023-12-07T07:57:58;98217.00;;;5.40
19040;BMP180;9652;49.014;12.052;2023-12-07T08:00:25;98221.00;;;5.40
19040;BMP180;9652;49.014;12.052;2023-12-07T08:02:54;98226.00;;;5.40
19040;BMP180;9652;49.014;12.052;2023-12-07T08:05:21;98221.00;;;5.50
19040;BMP180;9652;49.014;12.052;2023-12-07T08:07:48;98225.00;;;5.50
19040;BMP180;9652;49.014;12.052;2023-12-07T08:10:15;98215.00;;;5.60
19040;BMP180;9652;49.014;12.052;2023-12-07T08:12:43;98238.00;;;5.60
19040;BMP180;9652;49.014;12.052;2023-12-07T08:15:10;98244.00;;;5.70
19040;BMP180;9652;49.014;12.052;2023-12-07T08:17:38;98238.00;;;5.70
19040;BMP180;9652;49.014;12.052;2023-12-07T08:20:07;98251.00;;;5.80
19040;BMP180;9652;49.014;12.052;2023-12-07T08:22:36;98226.00;;;5.80
19040;BMP180;9652;49.014;12.052;2023-12-07T08:25:05;98243.00;;;5.80
19040;BMP180;9652;49.014;12.052;2023-12-07T08:27:34;98246.00;;;5.80
19040;BMP180;9652;49.014;12.052;2023-12-07T08:30:04;98243.00;;;5.80
19040;BMP180;9652;49.014;12.052;2023-12-07T08:32:32;98230.00;;;5.80
19040;BMP180;9652;49.014;12.052;2023-12-07T08:34:59;98243.00;;;5.80
19040;BMP180;9652;49.014;12.052;2023-12-07T08:37:26;98245.00;;;5.80
19040;BMP180;9652;49.014;12.052;2023-12-07T08:39:54;98238.00;;;5.80
19040;BMP180;9652;49.014;12.052;2023-12-07T08:42:22;98254.00;;;5.80
19040;BMP180;9652;49.014;12.052;2023-12-07T08:44:49;98252.00;;;5.80
19040;BMP180;9652;49.014;12.052;2023-12-07T08:47:17;98251.00;;;5.70
19040;BMP180;9652;49.014;12.052;2023-12-07T08:49:44;98261.00;;;5.70
19040;BMP180;9652;49.014;12.052;2023-12-07T08:52:12;98260.00;;;5.70
19040;BMP180;9652;49.014;12.052;2023-12-07T08:54:39;98269.00;;;5.70
19040;BMP180;9652;49.014;12.052;2023-12-07T08:57:06;98272.00;;;5.70
19040;BMP180;9652;49.014;12.052;2023-12-07T08:59:33;98285.00;;;5.70
19040;BMP180;9652;49.014;12.052;2023-12-07T09:02:00;98267.00;;;5.70
19040;BMP180;9652;49.014;12.052;2023-12-07T09:04:29;98267.00;;;5.70
19040;BMP180;9652;49.014;12.052;2023-12-07T09:06:56;98252.00;;;5.70
19040;BMP180;9652;49.014;12.052;2023-12-07T09:09:23;98261.00;;;5.70
19040;BMP180;9652;49.014;12.052;2023-12-07T09:11:51;98263.00;;;5.70
19040;BMP180;9652;49.014;12.052;2023-12-07T09:14:19;98246.00;;;5.80
19040;BMP180;9652;49.014;12.052;2023-12-07T09:16:46;98251.00;;;5.80
19040;BMP180;9652;49.014;12.052;2023-12-07T09:19:13;98254.00;;;5.80
19040;BMP180;9652;49.014;12.052;2023-12-07T09:21:42;98253.00;;;5.80
19040;BMP180;9652;49.014;12.052;2023-12-07T09:24:09;98220.00;;;5.80
19040;BMP180;9652;49.014;12.052;2023-12-07T09:26:36;98251.00;;;5.80
19040;BMP180;9652;49.014;12.052;2023-12-07T09:29:03;98244.00;;;5.80
19040;BMP180;9652;49.014;12.052;2023-12-07T09:31:31;98243.00;;;5.80
19040;BMP180;9652;49.014;12.052;2023-12-07T09:33:58;98250.00;;;5.90
19040;BMP180;9652;49.014;12.052;2023-12-07T09:36:25;98243.00;;;5.90
19040;BMP180;9652;49.014;12.052;2023-12-07T09:38:55;98211.00;;;5.90
19040;BMP180;9652;49.014;12.052;2023-12-07T09:41:23;98241.00;;;5.90
19040;BMP180;9652;49.014;12.052;2023-12-07T09:43:50;98262.00;;;5.90
19040;BMP180;9652;49.014;12.052;2023-12-07T09:46:18;98252.00;;;6.00
19040;BMP180;9652;49.014;12.052;2023-12-07T09:48:49;98246.00;;;6.00
19040;BMP180;9652;49.014;12.052;2023-12-07T09:51:16;98251.00;;;6.00
19040;BMP180;9652;49.014;12.052;2023-12-07T09:53:48;98234.00;;;6.00
19040;BMP180;9652;49.014;12.052;2023-12-07T09:56:17;98243.00;;;6.10
19040;BMP180;9652;49.014;12.052;2023-12-07T09:58:44;98178.00;;;6.10
19040;BMP180;9652;49.014;12.052;2023-12-07T10:01:11;98253.00;;;6.20
19040;BMP180;9652;49.014;12.052;2023-12-07T10:03:40;98229.00;;;6.20
19040;BMP180;9652;49.014;12.052;2023-12-07T10:06:08;98244.00;;;6.30
19040;BMP180;9652;49.014;12.052;2023-12-07T10:08:35;98234.00;;;6.40
19040;BMP180;9652;49.014;12.052;2023-12-07T10:11:05;98225.00;;;6.40
19040;BMP180;9652;49.014;12.052;2023-12-07T10:13:36;98220.00;;;6.40
19040;BMP180;9652;49.014;12.052;2023-12-07T10:16:13;98224.00;;;6.50
19040;BMP180;9652;49.014;12.052;2023-12-07T10:18:41;98224.00;;;6.50
19040;BMP180;9652;49.014;12.052;2023-12-07T10:21:09;98231.00;;;6.60
19040;BMP180;9652;49.014;12.052;2023-12-07T10:23:37;98218.00;;;6.60
19040;BMP180;9652;49.014;12.052;2023-12-07T10:26:06;98215.00;;;6.70
19040;BMP180;9652;49.014;12.052;2023-12-07T10:28:36;98188.00;;;6.80
19040;BMP180;9652;49.014;12.052;2023-12-07T10:31:08;98199.00;;;6.90
19040;BMP180;9652;49.014;12.052;2023-12-07T10:33:36;98208.00;;;6.90
19040;BMP180;9652;49.014;12.052;2023-12-07T10:36:04;98201.00;;;6.90
19040;BMP180;9652;49.014;12.052;2023-12-07T10:38:32;98193.00;;;7.00
19040;BMP180;9652;49.014;12.052;2023-12-07T10:41:04;98207.00;;;7.00
19040;BMP180;9652;49.014;12.052;2023-12-07T10:43:43;98208.00;;;7.10
19040;BMP180;9652;49.014;12.052;2023-12-07T10:46:15;98202.00;;;7.10
19040;BMP180;9652;49.014;12.052;2023-12-07T10:48:44;98205.00;;;7.20
19040;BMP180;9652;49.014;12.052;2023-12-07T10:51:19;98195.00;;;7.20
19040;BMP180;9652;49.014;12.052;2023-12-07T10:53:50;98188.00;;;7.30
19040;BMP180;9652;49.014;12.052;2023-12-07T10:56:28;98190.00;;;7.40
19040;BMP180;9652;49.014;12.052;2023-12-07T10:58:58;98184.00;;;7.40
19040;BMP180;9652;49.014;12.052;2023-12-07T11:01:26;98187.00;;;7.40
19040;BMP180;9652;49.014;12.052;2023-12-07T11:03:54;98179.00;;;7.50
19040;BMP180;9652;49.014;12.052;2023-12-07T11:06:23;98174.00;;;7.60
19040;BMP180;9652;49.014;12.052;2023-12-07T11:08:58;98168.00;;;7.60
19040;BMP180;9652;49.014;12.052;2023-12-07T11:11:38;98171.00;;;7.60
19040;BMP180;9652;49.014;12.052;2023-12-07T11:14:10;98185.00;;;7.70
19040;BMP180;9652;49.014;12.052;2023-12-07T11:16:42;98182.00;;;7.70
19040;BMP180;9652;49.014;12.052;2023-12-07T11:19:44;98175.00;;;7.80
19040;BMP180;9652;49.014;12.052;2023-12-07T11:22:12;98127.00;;;7.80
19040;BMP180;9652;49.014;12.052;2023-12-07T11:24:53;98187.00;;;7.80
19040;BMP180;9652;49.014;12.052;2023-12-07T11:27:21;98177.00;;;7.80
19040;BMP180;9652;49.014;12.052;2023-12-07T11:29:51;98188.00;;;7.70
19040;BMP180;9652;49.014;12.052;2023-12-07T11:32:18;98189.00;;;7.70
19040;BMP180;9652;49.014;12.052;2023-12-07T11:34:45;98178.00;;;7.70
19040;BMP180;9652;49.014;12.052;2023-12-07T11:37:16;98179.00;;;7.60
19040;BMP180;9652;49.014;12.052;2023-12-07T11:39:43;98155.00;;;7.60
19040;BMP180;9652;49.014;12.052;2023-12-07T11:42:15;98166.00;;;7.60
19040;BMP180;9652;49.014;12.052;2023-12-07T11:44:44;98181.00;;;7.60
19040;BMP180;9652;49.014;12.052;2023-12-07T11:47:19;98168.00;;;7.50
19040;BMP180;9652;49.014;12.052;2023-12-07T11:49:47;98160.00;;;7.60
19040;BMP180;9652;49.014;12.052;2023-12-07T11:52:16;98141.00;;;7.60
19040;BMP180;9652;49.014;12.052;2023-12-07T11:54:44;98158.00;;;7.60
19040;BMP180;9652;49.014;12.052;2023-12-07T11:57:13;98156.00;;;7.70
19040;BMP180;9652;49.014;12.052;2023-12-07T11:59:40;98160.00;;;7.80
19040;BMP180;9652;49.014;12.052;2023-12-07T12:02:07;98138.00;;;7.90
19040;BMP180;9652;49.014;12.052;2023-12-07T12:04:35;98156.00;;;8.00
19040;BMP180;9652;49.014;12.052;2023-12-07T12:07:03;98155.00;;;8.10
19040;BMP180;9652;49.014;12.052;2023-12-07T12:09:30;98146.00;;;8.20
19040;BMP180;9652;49.014;12.052;2023-12-07T12:11:57;98159.00;;;8.30
19040;BMP180;9652;49.014;12.052;2023-12-07T12:14:27;98143.00;;;8.50
19040;BMP180;9652;49.014;12.052;2023-12-07T12:16:54;98158.00;;;8.60
19040;BMP180;9652;49.014;12.052;2023-12-07T12:19:22;98160.00;;;8.70
19040;BMP180;9652;49.014;12.052;2023-12-07T12:21:51;98139.00;;;8.70
19040;BMP180;9652;49.014;12.052;2023-12-07T12:24:18;98128.00;;;8.80
19040;BMP180;9652;49.014;12.052;2023-12-07T12:26:47;98145.00;;;8.70
19040;BMP180;9652;49.014;12.052;2023-12-07T12:29:15;98132.00;;;8.70
19040;BMP180;9652;49.014;12.052;2023-12-07T12:31:42;98144.00;;;8.70
19040;BMP180;9652;49.014;12.052;2023-12-07T12:34:11;98139.00;;;8.70
19040;BMP180;9652;49.014;12.052;2023-12-07T12:36:39;98140.00;;;8.70
19040;BMP180;9652;49.014;12.052;2023-12-07T12:39:08;98134.00;;;8.70
19040;BMP180;9652;49.014;12.052;2023-12-07T12:41:35;98134.00;;;8.70
19040;BMP180;9652;49.014;12.052;2023-12-07T12:44:02;98124.00;;;8.70
19040;BMP180;9652;49.014;12.052;2023-12-07T12:46:29;98110.00;;;8.70
19040;BMP180;9652;49.014;12.052;2023-12-07T12:48:58;98117.00;;;8.60
19040;BMP180;9652;49.014;12.052;2023-12-07T12:51:28;98109.00;;;8.60
19040;BMP180;9652;49.014;12.052;2023-12-07T12:53:59;98119.00;;;8.50
19040;BMP180;9652;49.014;12.052;2023-12-07T12:56:28;98094.00;;;8.50
19040;BMP180;9652;49.014;12.052;2023-12-07T12:58:55;98081.00;;;8.50
19040;BMP180;9652;49.014;12.052;2023-12-07T13:01:23;98106.00;;;8.40
19040;BMP180;9652;49.014;12.052;2023-12-07T13:03:50;98124.00;;;8.40
19040;BMP180;9652;49.014;12.052;2023-12-07T13:06:17;98099.00;;;8.30
19040;BMP180;9652;49.014;12.052;2023-12-07T13:08:47;98110.00;;;8.30
19040;BMP180;9652;49.014;12.052;2023-12-07T13:11:17;98109.00;;;8.30
19040;BMP180;9652;49.014;12.052;2023-12-07T13:13:47;98096.00;;;8.30
19040;BMP180;9652;49.014;12.052;2023-12-07T13:16:15;98000.00;;;8.20
19040;BMP180;9652;49.014;12.052;2023-12-07T13:18:42;98091.00;;;8.20
19040;BMP180;9652;49.014;12.052;2023-12-07T13:21:09;98115.00;;;8.20
19040;BMP180;9652;49.014;12.052;2023-12-07T13:23:37;98101.00;;;8.20
19040;BMP180;9652;49.014;12.052;2023-12-07T13:26:04;98098.00;;;8.20
19040;BMP180;9652;49.014;12.052;2023-12-07T13:28:32;98098.00;;;8.10
19040;BMP180;9652;49.014;12.052;2023-12-07T13:31:01;98095.00;;;8.00
19040;BMP180;9652;49.014;12.052;2023-12-07T13:33:29;98090.00;;;8.00
19040;BMP180;9652;49.014;12.052;2023-12-07T13:35:56;98103.00;;;7.90
19040;BMP180;9652;49.014;12.052;2023-12-07T13:38:23;98098.00;;;7.90
19040;BMP180;9652;49.014;12.052;2023-12-07T13:40:50;98082.00;;;7.90
19040;BMP180;9652;49.014;12.052;2023-12-07T13:43:17;98093.00;;;7.90
19040;BMP180;9652;49.014;12.052;2023-12-07T13:45:45;98098.00;;;7.80
19040;BMP180;9652;49.014;12.052;2023-12-07T13:48:13;98092.00;;;7.80
19040;BMP180;9652;49.014;12.052;2023-12-07T13:50:42;98096.00;;;7.70
19040;BMP180;9652;49.014;12.052;2023-12-07T13:53:09;98093.00;;;7.70
19040;BMP180;9652;49.014;12.052;2023-12-07T13:55:38;98086.00;;;7.60
19040;BMP180;9652;49.014;12.052;2023-12-07T13:58:05;98080.00;;;7.50
19040;BMP180;9652;49.014;12.052;2023-12-07T14:00:32;98076.00;;;7.40
19040;BMP180;9652;49.014;12.052;2023-12-07T14:03:00;98065.00;;;7.30
19040;BMP180;9652;49.014;12.052;2023-12-07T14:05:28;98069.00;;;7.20
19040;BMP180;9652;49.014;12.052;2023-12-07T14:07:55;98066.00;;;7.10
19040;BMP180;9652;49.014;12.052;2023-12-07T14:10:22;97992.00;;;7.00
19040;BMP180;9652;49.014;12.052;2023-12-07T14:15:25;98058.00;;;6.90
19040;BMP180;9652;49.014;12.052;2023-12-07T14:17:52;98057.00;;;6.80
19040;BMP180;9652;49.014;12.052;2023-12-07T14:20:20;98045.00;;;6.70
19040;BMP180;9652;49.014;12.052;2023-12-07T14:22:54;98061.00;;;6.60
19040;BMP180;9652;49.014;12.052;2023-12-07T14:25:21;98063.00;;;6.60
19040;BMP180;9652;49.014;12.052;2023-12-07T14:27:48;98060.00;;;6.50
19040;BMP180;9652;49.014;12.052;2023-12-07T14:30:15;98058.00;;;6.50